Summersville, Illinois
Current Conditions -  °F | °C
As of 3:35 PM on Saturday 20 Dec 2014 (Local Time) from KMVN Reporting Station
Overcast Overcast  
Wind Chill: 39°   Ceiling: 3100
Heat Index: 39°   Visibility: 10mi
Dew Point: 27°   Wind: 3mph
Humidity: 61%   Direction: 110°ESE
Pressure: 30.26"   Gusts: NA
Location:  38.3147°N, 88.9065°W
Report Text: KMVN 202135Z AUTO 11003KT 10SM OVC031 04/M03 A3026 RMK AO1
Loading
Personal Weather Stations






























Interactive Weather Map New forecast layout! Learn more

10-Day Weather Forecast

Advertisements
Track Severe Weather on mobile